Terminal Aerodrome Forecast
Issued by NWS Cleveland, OH

Home | Current Version | Previous Version | Text Only | Print | Product List | Glossary Off
Versions: 1 2 3 4 5 6 7 8 9 10 11 12 13 14 15 16 17 18 19 20

000
FTUS41 KCLE 151412 AAA
TAFYNG
TAF AMD
KYNG 151412Z 1514/1612 20010G18KT P6SM SCT018 BKN150
      TEMPO 1514/1517 BKN018
     FM151900 26020G35KT 6SM -SHRA VCTS OVC025CB
      TEMPO 1519/1521 VRB28G40KT 2SM TSRA BKN015CB
     FM152100 27015G25KT P6SM OVC025
     FM160300 30010KT P6SM BKN025=

USA.gov is the U.S. government's official web portal to all federal, state and local government web resources and services.